sensor_id;sensor_type;location;lat;lon;timestamp;pressure;altitude;pressure_sealevel;temperature;humidity
60820;BME280;46641;48.904;9.126;2023-09-19T00:04:32;98133.44;;;24.41;50.83
60820;BME280;46641;48.904;9.126;2023-09-19T00:09:22;98148.59;;;24.40;50.63
60820;BME280;46641;48.904;9.126;2023-09-19T00:14:16;98158.75;;;24.38;50.46
60820;BME280;46641;48.904;9.126;2023-09-19T00:19:06;98160.06;;;24.36;50.79
60820;BME280;46641;48.904;9.126;2023-09-19T00:23:57;98157.88;;;24.33;51.04
60820;BME280;46641;48.904;9.126;2023-09-19T00:28:47;98170.19;;;24.34;50.75
60820;BME280;46641;48.904;9.126;2023-09-19T00:33:38;98175.22;;;24.30;50.80
60820;BME280;46641;48.904;9.126;2023-09-19T00:38:28;98182.19;;;24.31;50.85
60820;BME280;46641;48.904;9.126;2023-09-19T00:43:19;98176.50;;;24.27;50.81
60820;BME280;46641;48.904;9.126;2023-09-19T00:48:10;98178.63;;;24.25;50.80
60820;BME280;46641;48.904;9.126;2023-09-19T00:53:01;98180.72;;;24.23;50.56
60820;BME280;46641;48.904;9.126;2023-09-19T00:57:52;98186.06;;;24.23;50.90
60820;BME280;46641;48.904;9.126;2023-09-19T01:02:42;98182.03;;;24.21;50.80
60820;BME280;46641;48.904;9.126;2023-09-19T01:07:33;98189.25;;;24.20;50.35
60820;BME280;46641;48.904;9.126;2023-09-19T01:12:33;98197.75;;;24.17;50.55
60820;BME280;46641;48.904;9.126;2023-09-19T01:17:33;98204.16;;;24.16;50.83
60820;BME280;46641;48.904;9.126;2023-09-19T01:22:40;98210.56;;;24.15;50.71
60820;BME280;46641;48.904;9.126;2023-09-19T01:32:41;98223.63;;;24.12;50.90
60820;BME280;46641;48.904;9.126;2023-09-19T01:37:33;98213.16;;;24.10;50.95
60820;BME280;46641;48.904;9.126;2023-09-19T01:42:58;98225.97;;;24.08;50.66
60820;BME280;46641;48.904;9.126;2023-09-19T01:47:54;98220.03;;;24.06;50.91
60820;BME280;46641;48.904;9.126;2023-09-19T01:53:05;98231.78;;;24.05;51.01
60820;BME280;46641;48.904;9.126;2023-09-19T01:58:10;98242.50;;;24.05;50.83
60820;BME280;46641;48.904;9.126;2023-09-19T02:03:03;98241.31;;;24.01;50.77
60820;BME280;46641;48.904;9.126;2023-09-19T02:07:53;98247.75;;;24.00;51.03
60820;BME280;46641;48.904;9.126;2023-09-19T02:12:44;98244.25;;;23.99;50.72
60820;BME280;46641;48.904;9.126;2023-09-19T02:17:35;98245.53;;;23.97;51.21
60820;BME280;46641;48.904;9.126;2023-09-19T02:22:25;98251.16;;;23.95;51.07
60820;BME280;46641;48.904;9.126;2023-09-19T02:27:15;98261.25;;;23.93;51.07
60820;BME280;46641;48.904;9.126;2023-09-19T02:32:06;98258.59;;;23.93;50.96
60820;BME280;46641;48.904;9.126;2023-09-19T02:36:57;98257.19;;;23.91;51.01
60820;BME280;46641;48.904;9.126;2023-09-19T02:41:47;98260.34;;;23.88;50.94
60820;BME280;46641;48.904;9.126;2023-09-19T02:46:37;98262.47;;;23.86;51.08
60820;BME280;46641;48.904;9.126;2023-09-19T02:51:28;98284.66;;;23.86;51.37
60820;BME280;46641;48.904;9.126;2023-09-19T02:56:18;98277.09;;;23.83;51.03
60820;BME280;46641;48.904;9.126;2023-09-19T03:01:12;98278.13;;;23.82;51.25
60820;BME280;46641;48.904;9.126;2023-09-19T03:06:02;98282.94;;;23.80;51.13
60820;BME280;46641;48.904;9.126;2023-09-19T03:10:54;98286.88;;;23.77;51.32
60820;BME280;46641;48.904;9.126;2023-09-19T03:15:44;98286.31;;;23.75;51.14
60820;BME280;46641;48.904;9.126;2023-09-19T03:20:37;98290.38;;;23.78;51.28
60820;BME280;46641;48.904;9.126;2023-09-19T03:25:28;98298.63;;;23.76;51.38
60820;BME280;46641;48.904;9.126;2023-09-19T03:30:19;98295.38;;;23.74;51.22
60820;BME280;46641;48.904;9.126;2023-09-19T03:35:09;98303.66;;;23.73;51.42
60820;BME280;46641;48.904;9.126;2023-09-19T03:40:04;98298.31;;;23.73;51.40
60820;BME280;46641;48.904;9.126;2023-09-19T03:44:55;98301.19;;;23.71;51.69
60820;BME280;46641;48.904;9.126;2023-09-19T03:49:45;98297.72;;;23.71;51.49
60820;BME280;46641;48.904;9.126;2023-09-19T03:54:35;98291.78;;;23.69;51.15
60820;BME280;46641;48.904;9.126;2023-09-19T03:59:26;98296.53;;;23.67;51.21
60820;BME280;46641;48.904;9.126;2023-09-19T04:04:17;98304.56;;;23.67;51.07
60820;BME280;46641;48.904;9.126;2023-09-19T04:09:09;98308.25;;;23.66;51.58
60820;BME280;46641;48.904;9.126;2023-09-19T04:14:03;98313.84;;;23.64;51.39
60820;BME280;46641;48.904;9.126;2023-09-19T04:18:53;98313.28;;;23.62;51.18
60820;BME280;46641;48.904;9.126;2023-09-19T04:23:44;98311.91;;;23.60;51.50
60820;BME280;46641;48.904;9.126;2023-09-19T04:28:34;98321.75;;;23.59;51.52
60820;BME280;46641;48.904;9.126;2023-09-19T04:33:26;98319.09;;;23.59;51.15
60820;BME280;46641;48.904;9.126;2023-09-19T04:38:19;98330.81;;;23.58;51.54
60820;BME280;46641;48.904;9.126;2023-09-19T04:43:10;98324.91;;;23.56;51.21
60820;BME280;46641;48.904;9.126;2023-09-19T04:48:00;98327.00;;;23.54;51.49
60820;BME280;46641;48.904;9.126;2023-09-19T04:52:50;98332.56;;;23.52;51.37
60820;BME280;46641;48.904;9.126;2023-09-19T04:57:41;98348.59;;;23.52;51.66
60820;BME280;46641;48.904;9.126;2023-09-19T05:02:31;98365.47;;;23.53;51.80
60820;BME280;46641;48.904;9.126;2023-09-19T05:07:21;98371.84;;;23.52;51.42
60820;BME280;46641;48.904;9.126;2023-09-19T05:12:13;98373.94;;;23.50;51.79
60820;BME280;46641;48.904;9.126;2023-09-19T05:17:03;98390.56;;;23.28;53.14
60820;BME280;46641;48.904;9.126;2023-09-19T05:21:54;98382.84;;;22.85;55.12
60820;BME280;46641;48.904;9.126;2023-09-19T05:26:45;98396.25;;;22.67;54.96
60820;BME280;46641;48.904;9.126;2023-09-19T05:31:35;98394.19;;;22.38;55.85
60820;BME280;46641;48.904;9.126;2023-09-19T05:36:30;98396.63;;;22.70;54.93
60820;BME280;46641;48.904;9.126;2023-09-19T05:41:21;98399.44;;;22.87;54.69
60820;BME280;46641;48.904;9.126;2023-09-19T05:46:11;98397.69;;;22.93;54.28
60820;BME280;46641;48.904;9.126;2023-09-19T05:51:01;98406.91;;;22.97;54.19
60820;BME280;46641;48.904;9.126;2023-09-19T05:55:52;98420.50;;;22.95;54.50
60820;BME280;46641;48.904;9.126;2023-09-19T06:00:44;98429.13;;;22.91;54.67
60820;BME280;46641;48.904;9.126;2023-09-19T06:05:34;98434.13;;;22.87;54.18
60820;BME280;46641;48.904;9.126;2023-09-19T06:10:24;98436.44;;;22.83;54.55
60820;BME280;46641;48.904;9.126;2023-09-19T06:15:16;98446.91;;;22.85;54.41
60820;BME280;46641;48.904;9.126;2023-09-19T06:20:08;98439.72;;;22.85;54.43
60820;BME280;46641;48.904;9.126;2023-09-19T06:25:05;98443.19;;;22.86;53.84
60820;BME280;46641;48.904;9.126;2023-09-19T06:29:55;98453.06;;;22.85;54.13
60820;BME280;46641;48.904;9.126;2023-09-19T06:34:51;98444.44;;;22.83;54.18
60820;BME280;46641;48.904;9.126;2023-09-19T06:39:44;98445.34;;;22.77;54.51
60820;BME280;46641;48.904;9.126;2023-09-19T06:44:34;98450.13;;;22.75;53.87
60820;BME280;46641;48.904;9.126;2023-09-19T06:49:24;98463.56;;;22.69;54.33
60820;BME280;46641;48.904;9.126;2023-09-19T06:54:15;98451.47;;;22.66;54.69
60820;BME280;46641;48.904;9.126;2023-09-19T06:59:05;98460.75;;;22.63;54.65
60820;BME280;46641;48.904;9.126;2023-09-19T07:03:57;98472.00;;;22.66;54.41
60820;BME280;46641;48.904;9.126;2023-09-19T07:08:47;98488.59;;;22.68;54.41
60820;BME280;46641;48.904;9.126;2023-09-19T07:13:38;98493.81;;;22.62;54.69
60820;BME280;46641;48.904;9.126;2023-09-19T07:18:29;98496.25;;;22.64;54.50
60820;BME280;46641;48.904;9.126;2023-09-19T07:23:21;98495.66;;;22.62;54.33
60820;BME280;46641;48.904;9.126;2023-09-19T07:28:13;98507.16;;;22.62;54.21
60820;BME280;46641;48.904;9.126;2023-09-19T07:33:03;98505.50;;;22.61;54.40
60820;BME280;46641;48.904;9.126;2023-09-19T07:37:55;98521.59;;;22.55;54.68
60820;BME280;46641;48.904;9.126;2023-09-19T07:42:46;98515.81;;;22.58;54.57
60820;BME280;46641;48.904;9.126;2023-09-19T07:47:37;98527.09;;;22.60;54.44
60820;BME280;46641;48.904;9.126;2023-09-19T07:52:27;98530.19;;;22.57;54.47
60820;BME280;46641;48.904;9.126;2023-09-19T07:57:17;98535.09;;;22.60;54.46
60820;BME280;46641;48.904;9.126;2023-09-19T08:02:08;98535.69;;;22.62;54.41
60820;BME280;46641;48.904;9.126;2023-09-19T08:06:59;98542.84;;;22.61;54.46
60820;BME280;46641;48.904;9.126;2023-09-19T08:11:50;98545.31;;;22.63;54.57
60820;BME280;46641;48.904;9.126;2023-09-19T08:16:40;98551.00;;;22.67;54.87
60820;BME280;46641;48.904;9.126;2023-09-19T08:21:32;98552.88;;;22.66;54.54
60820;BME280;46641;48.904;9.126;2023-09-19T08:26:23;98546.34;;;22.62;54.69
60820;BME280;46641;48.904;9.126;2023-09-19T08:31:14;98539.16;;;22.62;54.76
60820;BME280;46641;48.904;9.126;2023-09-19T08:36:05;98541.16;;;22.67;54.52
60820;BME280;46641;48.904;9.126;2023-09-19T08:40:59;98546.84;;;22.71;54.45
60820;BME280;46641;48.904;9.126;2023-09-19T08:45:50;98557.31;;;22.72;54.28
60820;BME280;46641;48.904;9.126;2023-09-19T08:50:51;98564.88;;;22.75;54.16
60820;BME280;46641;48.904;9.126;2023-09-19T08:55:43;98574.16;;;22.84;54.39
60820;BME280;46641;48.904;9.126;2023-09-19T09:00:34;98567.13;;;22.90;54.35
60820;BME280;46641;48.904;9.126;2023-09-19T09:05:27;98561.97;;;22.95;54.41
60820;BME280;46641;48.904;9.126;2023-09-19T09:10:18;98559.88;;;22.97;54.58
60820;BME280;46641;48.904;9.126;2023-09-19T09:15:12;98564.91;;;23.05;54.58
60820;BME280;46641;48.904;9.126;2023-09-19T09:20:06;98562.13;;;23.12;54.42
60820;BME280;46641;48.904;9.126;2023-09-19T09:24:58;98571.22;;;23.23;54.44
60820;BME280;46641;48.904;9.126;2023-09-19T09:29:49;98569.25;;;23.30;54.45
60820;BME280;46641;48.904;9.126;2023-09-19T09:34:40;98564.31;;;23.33;54.25
60820;BME280;46641;48.904;9.126;2023-09-19T09:39:31;98569.28;;;23.42;53.67
60820;BME280;46641;48.904;9.126;2023-09-19T09:44:22;98571.66;;;23.50;53.78
60820;BME280;46641;48.904;9.126;2023-09-19T09:49:12;98575.84;;;23.58;53.22
60820;BME280;46641;48.904;9.126;2023-09-19T09:54:17;98561.31;;;23.65;52.90
60820;BME280;46641;48.904;9.126;2023-09-19T09:59:08;98559.97;;;23.74;52.75
60820;BME280;46641;48.904;9.126;2023-09-19T10:03:58;98557.53;;;23.85;52.57
60820;BME280;46641;48.904;9.126;2023-09-19T10:09:04;98565.22;;;23.93;53.15
60820;BME280;46641;48.904;9.126;2023-09-19T10:14:02;98569.63;;;23.99;52.90
60820;BME280;46641;48.904;9.126;2023-09-19T10:18:58;98559.84;;;24.05;52.99
60820;BME280;46641;48.904;9.126;2023-09-19T10:23:51;98555.78;;;24.14;52.69
60820;BME280;46641;48.904;9.126;2023-09-19T10:28:47;98547.41;;;24.22;51.71
60820;BME280;46641;48.904;9.126;2023-09-19T10:33:40;98543.53;;;24.30;51.42
60820;BME280;46641;48.904;9.126;2023-09-19T10:38:34;98558.41;;;24.37;52.09
60820;BME280;46641;48.904;9.126;2023-09-19T10:43:30;98561.00;;;24.44;52.31
60820;BME280;46641;48.904;9.126;2023-09-19T10:48:21;98558.75;;;24.53;51.87
60820;BME280;46641;48.904;9.126;2023-09-19T10:53:16;98563.19;;;24.59;51.54
60820;BME280;46641;48.904;9.126;2023-09-19T10:58:08;98564.66;;;24.66;52.01
60820;BME280;46641;48.904;9.126;2023-09-19T11:03:17;98569.19;;;24.66;51.56
60820;BME280;46641;48.904;9.126;2023-09-19T11:08:13;98563.84;;;24.66;52.10
60820;BME280;46641;48.904;9.126;2023-09-19T11:13:23;98565.25;;;24.68;51.86
60820;BME280;46641;48.904;9.126;2023-09-19T11:23:31;98553.59;;;24.75;52.21
60820;BME280;46641;48.904;9.126;2023-09-19T11:33:22;98543.19;;;24.90;50.60
60820;BME280;46641;48.904;9.126;2023-09-19T11:43:35;98529.53;;;24.91;50.48
60820;BME280;46641;48.904;9.126;2023-09-19T11:48:26;98530.44;;;24.97;50.66
60820;BME280;46641;48.904;9.126;2023-09-19T11:53:17;98524.94;;;25.04;50.12
60820;BME280;46641;48.904;9.126;2023-09-19T11:58:10;98518.38;;;25.11;49.70
60820;BME280;46641;48.904;9.126;2023-09-19T12:03:09;98517.75;;;25.21;50.16
60820;BME280;46641;48.904;9.126;2023-09-19T12:08:01;98509.34;;;25.29;49.27
60820;BME280;46641;48.904;9.126;2023-09-19T12:12:52;98509.50;;;25.39;49.18
60820;BME280;46641;48.904;9.126;2023-09-19T12:17:43;98504.56;;;25.48;49.36
60820;BME280;46641;48.904;9.126;2023-09-19T12:22:45;98501.53;;;25.61;49.24
60820;BME280;46641;48.904;9.126;2023-09-19T12:27:46;98484.47;;;25.68;48.88
60820;BME280;46641;48.904;9.126;2023-09-19T12:32:37;98483.81;;;25.77;48.77
60820;BME280;46641;48.904;9.126;2023-09-19T12:37:30;98478.31;;;25.84;48.44
60820;BME280;46641;48.904;9.126;2023-09-19T12:42:26;98479.44;;;25.88;47.55
60820;BME280;46641;48.904;9.126;2023-09-19T12:47:24;98463.66;;;25.92;47.94
60820;BME280;46641;48.904;9.126;2023-09-19T12:52:14;98469.81;;;25.92;47.52
60820;BME280;46641;48.904;9.126;2023-09-19T12:57:04;98461.84;;;25.97;48.41
60820;BME280;46641;48.904;9.126;2023-09-19T13:02:04;98455.16;;;26.00;46.51
60820;BME280;46641;48.904;9.126;2023-09-19T13:06:57;98463.47;;;25.98;47.13
60820;BME280;46641;48.904;9.126;2023-09-19T13:11:50;98461.41;;;26.05;47.45
60820;BME280;46641;48.904;9.126;2023-09-19T13:17:02;98465.53;;;26.13;43.63
60820;BME280;46641;48.904;9.126;2023-09-19T13:22:43;98456.38;;;25.03;43.41
60820;BME280;46641;48.904;9.126;2023-09-19T13:27:42;98451.03;;;25.03;42.25
60820;BME280;46641;48.904;9.126;2023-09-19T13:32:34;98447.59;;;25.07;41.80
60820;BME280;46641;48.904;9.126;2023-09-19T13:37:24;98449.47;;;25.07;42.38
60820;BME280;46641;48.904;9.126;2023-09-19T13:42:16;98446.53;;;25.08;41.92
60820;BME280;46641;48.904;9.126;2023-09-19T13:47:08;98441.31;;;25.13;41.74
60820;BME280;46641;48.904;9.126;2023-09-19T13:52:00;98441.66;;;25.05;44.72
60820;BME280;46641;48.904;9.126;2023-09-19T13:56:53;98432.88;;;25.60;44.40
60820;BME280;46641;48.904;9.126;2023-09-19T14:01:44;98433.06;;;25.93;44.06
60820;BME280;46641;48.904;9.126;2023-09-19T14:06:34;98425.03;;;26.15;44.03
60820;BME280;46641;48.904;9.126;2023-09-19T14:11:24;98420.59;;;26.25;44.52
60820;BME280;46641;48.904;9.126;2023-09-19T14:16:17;98412.34;;;26.32;44.31
60820;BME280;46641;48.904;9.126;2023-09-19T14:21:08;98417.22;;;26.35;44.68
60820;BME280;46641;48.904;9.126;2023-09-19T14:26:01;98411.91;;;26.40;44.75
60820;BME280;46641;48.904;9.126;2023-09-19T14:30:51;98408.66;;;26.38;44.29
60820;BME280;46641;48.904;9.126;2023-09-19T14:35:42;98404.97;;;26.44;43.87
60820;BME280;46641;48.904;9.126;2023-09-19T14:40:32;98403.06;;;26.45;43.63
60820;BME280;46641;48.904;9.126;2023-09-19T14:45:22;98401.28;;;26.50;43.41
60820;BME280;46641;48.904;9.126;2023-09-19T14:50:12;98405.66;;;26.56;44.02
60820;BME280;46641;48.904;9.126;2023-09-19T14:55:03;98403.78;;;26.57;43.94
60820;BME280;46641;48.904;9.126;2023-09-19T14:59:55;98398.91;;;26.54;44.00
60820;BME280;46641;48.904;9.126;2023-09-19T15:04:45;98400.03;;;26.58;43.80
60820;BME280;46641;48.904;9.126;2023-09-19T15:09:37;98402.47;;;26.60;43.63
60820;BME280;46641;48.904;9.126;2023-09-19T15:14:27;98393.03;;;26.57;42.92
60820;BME280;46641;48.904;9.126;2023-09-19T15:19:19;98391.44;;;26.56;43.60
60820;BME280;46641;48.904;9.126;2023-09-19T15:24:10;98393.34;;;26.61;43.37
60820;BME280;46641;48.904;9.126;2023-09-19T15:29:00;98392.53;;;26.60;43.43
60820;BME280;46641;48.904;9.126;2023-09-19T15:33:50;98396.53;;;26.57;43.53
60820;BME280;46641;48.904;9.126;2023-09-19T15:43:41;98379.03;;;26.55;44.39
60820;BME280;46641;48.904;9.126;2023-09-19T15:48:31;98369.16;;;26.55;44.58
60820;BME280;46641;48.904;9.126;2023-09-19T15:53:21;98371.00;;;26.55;44.64
60820;BME280;46641;48.904;9.126;2023-09-19T15:58:12;98377.69;;;26.52;44.27
60820;BME280;46641;48.904;9.126;2023-09-19T16:03:02;98377.69;;;26.52;44.61
60820;BME280;46641;48.904;9.126;2023-09-19T16:07:53;98367.94;;;26.46;43.75
60820;BME280;46641;48.904;9.126;2023-09-19T16:12:43;98368.25;;;26.23;41.42
60820;BME280;46641;48.904;9.126;2023-09-19T16:17:33;98377.50;;;26.10;41.56
60820;BME280;46641;48.904;9.126;2023-09-19T16:22:23;98365.94;;;26.09;41.89
60820;BME280;46641;48.904;9.126;2023-09-19T16:27:14;98373.38;;;26.02;41.90
60820;BME280;46641;48.904;9.126;2023-09-19T16:32:05;98372.34;;;26.03;41.48
60820;BME280;46641;48.904;9.126;2023-09-19T16:36:55;98375.03;;;26.03;41.29
60820;BME280;46641;48.904;9.126;2023-09-19T16:41:46;98373.06;;;25.99;41.10
60820;BME280;46641;48.904;9.126;2023-09-19T16:46:36;98367.72;;;25.99;41.86
60820;BME280;46641;48.904;9.126;2023-09-19T16:51:26;98370.22;;;25.83;42.33
60820;BME280;46641;48.904;9.126;2023-09-19T16:56:20;98358.34;;;26.01;42.52
60820;BME280;46641;48.904;9.126;2023-09-19T17:01:11;98362.47;;;26.09;42.47
60820;BME280;46641;48.904;9.126;2023-09-19T17:06:03;98357.41;;;26.13;42.76
60820;BME280;46641;48.904;9.126;2023-09-19T17:11:00;98364.13;;;26.15;42.70
60820;BME280;46641;48.904;9.126;2023-09-19T17:16:05;98368.97;;;26.13;43.04
60820;BME280;46641;48.904;9.126;2023-09-19T17:20:58;98381.00;;;26.10;43.10
60820;BME280;46641;48.904;9.126;2023-09-19T17:26:03;98363.97;;;26.00;43.08
60820;BME280;46641;48.904;9.126;2023-09-19T17:30:56;98372.50;;;25.75;43.01
60820;BME280;46641;48.904;9.126;2023-09-19T17:35:47;98372.88;;;25.61;42.50
60820;BME280;46641;48.904;9.126;2023-09-19T17:40:41;98377.75;;;25.48;43.23
60820;BME280;46641;48.904;9.126;2023-09-19T17:45:31;98383.59;;;25.61;43.21
60820;BME280;46641;48.904;9.126;2023-09-19T17:50:22;98390.97;;;25.71;43.22
60820;BME280;46641;48.904;9.126;2023-09-19T17:55:12;98395.50;;;25.71;43.39
60820;BME280;46641;48.904;9.126;2023-09-19T18:00:04;98394.19;;;25.73;43.09
60820;BME280;46641;48.904;9.126;2023-09-19T18:04:56;98404.09;;;25.73;43.26
60820;BME280;46641;48.904;9.126;2023-09-19T18:09:46;98408.09;;;25.70;43.49
60820;BME280;46641;48.904;9.126;2023-09-19T18:14:37;98410.22;;;25.68;43.28
60820;BME280;46641;48.904;9.126;2023-09-19T18:19:27;98404.06;;;25.68;43.59
60820;BME280;46641;48.904;9.126;2023-09-19T18:24:17;98415.28;;;25.64;43.56
60820;BME280;46641;48.904;9.126;2023-09-19T18:29:08;98422.41;;;25.59;43.72
60820;BME280;46641;48.904;9.126;2023-09-19T18:34:00;98423.97;;;25.55;43.82
60820;BME280;46641;48.904;9.126;2023-09-19T18:38:51;98421.78;;;25.52;44.46
60820;BME280;46641;48.904;9.126;2023-09-19T18:43:43;98420.41;;;25.49;43.96
60820;BME280;46641;48.904;9.126;2023-09-19T18:48:34;98416.34;;;25.47;44.21
60820;BME280;46641;48.904;9.126;2023-09-19T18:53:25;98423.00;;;25.44;44.12
60820;BME280;46641;48.904;9.126;2023-09-19T18:58:16;98422.47;;;25.42;44.19
60820;BME280;46641;48.904;9.126;2023-09-19T19:03:06;98432.59;;;25.40;44.19
60820;BME280;46641;48.904;9.126;2023-09-19T19:08:02;98432.53;;;25.35;44.38
60820;BME280;46641;48.904;9.126;2023-09-19T19:12:52;98446.06;;;25.28;44.54
60820;BME280;46641;48.904;9.126;2023-09-19T19:17:43;98438.78;;;25.24;44.68
60820;BME280;46641;48.904;9.126;2023-09-19T19:22:33;98458.81;;;25.21;44.54
60820;BME280;46641;48.904;9.126;2023-09-19T19:27:26;98451.53;;;25.16;44.78
60820;BME280;46641;48.904;9.126;2023-09-19T19:32:16;98454.09;;;25.11;44.91
60820;BME280;46641;48.904;9.126;2023-09-19T19:37:08;98469.84;;;25.08;44.90
60820;BME280;46641;48.904;9.126;2023-09-19T19:42:02;98476.97;;;25.02;45.13
60820;BME280;46641;48.904;9.126;2023-09-19T19:46:52;98461.06;;;24.95;45.34
60820;BME280;46641;48.904;9.126;2023-09-19T19:51:42;98462.84;;;24.90;45.57
60820;BME280;46641;48.904;9.126;2023-09-19T19:56:35;98476.13;;;24.85;45.38
60820;BME280;46641;48.904;9.126;2023-09-19T20:01:26;98474.19;;;24.80;45.53
60820;BME280;46641;48.904;9.126;2023-09-19T20:06:21;98484.09;;;24.80;45.61
60820;BME280;46641;48.904;9.126;2023-09-19T20:11:14;98490.16;;;24.75;45.57
60820;BME280;46641;48.904;9.126;2023-09-19T20:16:04;98493.09;;;24.74;45.49
60820;BME280;46641;48.904;9.126;2023-09-19T20:20:54;98486.34;;;24.71;45.68
60820;BME280;46641;48.904;9.126;2023-09-19T20:25:46;98476.09;;;24.68;46.04
60820;BME280;46641;48.904;9.126;2023-09-19T20:30:40;98481.13;;;24.64;45.87
60820;BME280;46641;48.904;9.126;2023-09-19T20:35:35;98486.47;;;24.64;45.93
60820;BME280;46641;48.904;9.126;2023-09-19T20:40:27;98473.25;;;24.58;46.12
60820;BME280;46641;48.904;9.126;2023-09-19T20:45:17;98474.28;;;24.57;45.70
60820;BME280;46641;48.904;9.126;2023-09-19T20:50:09;98481.28;;;24.58;46.09
60820;BME280;46641;48.904;9.126;2023-09-19T20:55:00;98484.16;;;24.56;45.65
60820;BME280;46641;48.904;9.126;2023-09-19T20:59:51;98488.97;;;24.54;45.99
60820;BME280;46641;48.904;9.126;2023-09-19T21:04:41;98480.59;;;24.51;45.85
60820;BME280;46641;48.904;9.126;2023-09-19T21:09:31;98487.25;;;24.48;46.11
60820;BME280;46641;48.904;9.126;2023-09-19T21:14:21;98489.59;;;24.44;46.35
60820;BME280;46641;48.904;9.126;2023-09-19T21:19:12;98492.47;;;24.43;45.94
60820;BME280;46641;48.904;9.126;2023-09-19T21:24:03;98489.44;;;24.39;46.31
60820;BME280;46641;48.904;9.126;2023-09-19T21:28:54;98491.78;;;24.36;46.49
60820;BME280;46641;48.904;9.126;2023-09-19T21:33:45;98487.97;;;24.32;46.49
60820;BME280;46641;48.904;9.126;2023-09-19T21:38:36;98487.63;;;24.28;46.43
60820;BME280;46641;48.904;9.126;2023-09-19T21:43:26;98488.09;;;24.25;46.58
60820;BME280;46641;48.904;9.126;2023-09-19T21:48:17;98478.09;;;24.20;46.22
60820;BME280;46641;48.904;9.126;2023-09-19T21:53:07;98474.25;;;24.16;46.47
60820;BME280;46641;48.904;9.126;2023-09-19T21:57:58;98482.53;;;24.15;46.65
60820;BME280;46641;48.904;9.126;2023-09-19T22:02:48;98487.50;;;24.11;46.66
60820;BME280;46641;48.904;9.126;2023-09-19T22:07:43;98489.63;;;24.09;46.81
60820;BME280;46641;48.904;9.126;2023-09-19T22:12:35;98478.81;;;24.04;46.73
60820;BME280;46641;48.904;9.126;2023-09-19T22:17:25;98491.84;;;24.00;46.92
60820;BME280;46641;48.904;9.126;2023-09-19T22:22:16;98483.72;;;23.95;46.81
60820;BME280;46641;48.904;9.126;2023-09-19T22:27:08;98479.66;;;23.93;46.53
60820;BME280;46641;48.904;9.126;2023-09-19T22:32:02;98489.22;;;23.89;46.83
60820;BME280;46641;48.904;9.126;2023-09-19T22:36:55;98488.84;;;23.85;46.98
60820;BME280;46641;48.904;9.126;2023-09-19T22:41:47;98493.03;;;23.81;47.22
60820;BME280;46641;48.904;9.126;2023-09-19T22:46:37;98500.25;;;23.81;47.35
60820;BME280;46641;48.904;9.126;2023-09-19T22:51:28;98500.94;;;23.76;47.31
60820;BME280;46641;48.904;9.126;2023-09-19T22:56:31;98503.84;;;23.74;47.03
60820;BME280;46641;48.904;9.126;2023-09-19T23:01:21;98502.69;;;23.70;47.07
60820;BME280;46641;48.904;9.126;2023-09-19T23:06:14;98509.09;;;23.69;47.08
60820;BME280;46641;48.904;9.126;2023-09-19T23:11:07;98504.97;;;23.67;47.50
60820;BME280;46641;48.904;9.126;2023-09-19T23:16:02;98500.09;;;23.64;47.03
60820;BME280;46641;48.904;9.126;2023-09-19T23:20:55;98505.09;;;23.60;47.26
60820;BME280;46641;48.904;9.126;2023-09-19T23:26:07;98514.13;;;23.59;47.17
60820;BME280;46641;48.904;9.126;2023-09-19T23:31:02;98503.91;;;23.56;47.09
60820;BME280;46641;48.904;9.126;2023-09-19T23:35:56;98496.84;;;23.50;47.74
60820;BME280;46641;48.904;9.126;2023-09-19T23:40:49;98493.59;;;23.48;47.75
60820;BME280;46641;48.904;9.126;2023-09-19T23:45:41;98499.38;;;23.45;47.65
60820;BME280;46641;48.904;9.126;2023-09-19T23:50:34;98490.22;;;23.41;47.67
60820;BME280;46641;48.904;9.126;2023-09-19T23:55:27;98501.13;;;23.39;47.87
